sensor_id;sensor_type;location;lat;lon;timestamp;P1;durP1;ratioP1;P2;durP2;ratioP2
59105;SDS011;44891;50.204;8.132;2023-07-22T00:03:07;6.68;;;5.82;;
59105;SDS011;44891;50.204;8.132;2023-07-22T00:07:10;7.82;;;6.25;;
59105;SDS011;44891;50.204;8.132;2023-07-22T00:11:13;6.70;;;5.97;;
59105;SDS011;44891;50.204;8.132;2023-07-22T00:15:15;6.28;;;5.60;;
59105;SDS011;44891;50.204;8.132;2023-07-22T00:19:17;8.15;;;6.70;;
59105;SDS011;44891;50.204;8.132;2023-07-22T00:23:20;8.98;;;6.20;;
59105;SDS011;44891;50.204;8.132;2023-07-22T00:27:23;6.78;;;6.07;;
59105;SDS011;44891;50.204;8.132;2023-07-22T00:31:25;7.32;;;6.60;;
59105;SDS011;44891;50.204;8.132;2023-07-22T00:35:28;6.50;;;5.80;;
59105;SDS011;44891;50.204;8.132;2023-07-22T00:39:31;8.10;;;6.50;;
59105;SDS011;44891;50.204;8.132;2023-07-22T00:43:33;8.43;;;6.60;;
59105;SDS011;44891;50.204;8.132;2023-07-22T00:51:37;7.88;;;6.68;;
59105;SDS011;44891;50.204;8.132;2023-07-22T00:55:41;8.85;;;7.60;;
59105;SDS011;44891;50.204;8.132;2023-07-22T00:59:43;8.57;;;7.15;;
59105;SDS011;44891;50.204;8.132;2023-07-22T01:03:46;9.40;;;7.45;;
59105;SDS011;44891;50.204;8.132;2023-07-22T01:07:48;8.10;;;6.85;;
59105;SDS011;44891;50.204;8.132;2023-07-22T01:11:52;9.45;;;6.85;;
59105;SDS011;44891;50.204;8.132;2023-07-22T01:15:54;6.80;;;6.07;;
59105;SDS011;44891;50.204;8.132;2023-07-22T01:19:56;8.00;;;6.00;;
59105;SDS011;44891;50.204;8.132;2023-07-22T01:24:01;7.65;;;6.50;;
59105;SDS011;44891;50.204;8.132;2023-07-22T01:28:03;6.93;;;6.20;;
59105;SDS011;44891;50.204;8.132;2023-07-22T01:32:10;8.02;;;6.32;;
59105;SDS011;44891;50.204;8.132;2023-07-22T01:36:12;8.25;;;6.30;;
59105;SDS011;44891;50.204;8.132;2023-07-22T01:40:16;10.23;;;6.57;;
59105;SDS011;44891;50.204;8.132;2023-07-22T01:44:18;7.57;;;6.47;;
59105;SDS011;44891;50.204;8.132;2023-07-22T01:48:20;11.85;;;7.20;;
59105;SDS011;44891;50.204;8.132;2023-07-22T01:52:24;8.63;;;6.72;;
59105;SDS011;44891;50.204;8.132;2023-07-22T01:56:27;8.77;;;6.47;;
59105;SDS011;44891;50.204;8.132;2023-07-22T02:00:29;7.00;;;6.00;;
59105;SDS011;44891;50.204;8.132;2023-07-22T02:04:31;9.30;;;6.25;;
59105;SDS011;44891;50.204;8.132;2023-07-22T02:08:33;7.22;;;6.35;;
59105;SDS011;44891;50.204;8.132;2023-07-22T02:12:38;7.72;;;6.30;;
59105;SDS011;44891;50.204;8.132;2023-07-22T02:16:40;8.80;;;6.75;;
59105;SDS011;44891;50.204;8.132;2023-07-22T02:24:44;7.95;;;6.40;;
59105;SDS011;44891;50.204;8.132;2023-07-22T02:28:48;7.80;;;6.30;;
59105;SDS011;44891;50.204;8.132;2023-07-22T02:32:50;10.40;;;6.47;;
59105;SDS011;44891;50.204;8.132;2023-07-22T02:36:52;8.13;;;6.80;;
59105;SDS011;44891;50.204;8.132;2023-07-22T02:40:54;7.85;;;6.35;;
59105;SDS011;44891;50.204;8.132;2023-07-22T02:45:02;9.13;;;7.20;;
59105;SDS011;44891;50.204;8.132;2023-07-22T02:49:04;10.13;;;7.57;;
59105;SDS011;44891;50.204;8.132;2023-07-22T02:53:07;8.63;;;6.60;;
59105;SDS011;44891;50.204;8.132;2023-07-22T02:57:09;9.02;;;7.03;;
59105;SDS011;44891;50.204;8.132;2023-07-22T03:01:12;11.32;;;7.43;;
59105;SDS011;44891;50.204;8.132;2023-07-22T03:05:14;10.30;;;7.20;;
59105;SDS011;44891;50.204;8.132;2023-07-22T03:09:17;9.63;;;7.60;;
59105;SDS011;44891;50.204;8.132;2023-07-22T03:13:22;11.75;;;8.10;;
59105;SDS011;44891;50.204;8.132;2023-07-22T03:17:25;12.20;;;7.70;;
59105;SDS011;44891;50.204;8.132;2023-07-22T03:21:28;11.25;;;7.88;;
59105;SDS011;44891;50.204;8.132;2023-07-22T03:25:31;9.30;;;6.80;;
59105;SDS011;44891;50.204;8.132;2023-07-22T03:29:33;9.15;;;7.25;;
59105;SDS011;44891;50.204;8.132;2023-07-22T03:33:38;8.88;;;7.28;;
59105;SDS011;44891;50.204;8.132;2023-07-22T03:37:40;8.63;;;6.95;;
59105;SDS011;44891;50.204;8.132;2023-07-22T03:41:43;9.65;;;7.53;;
59105;SDS011;44891;50.204;8.132;2023-07-22T03:49:48;10.73;;;7.40;;
59105;SDS011;44891;50.204;8.132;2023-07-22T03:53:51;9.57;;;7.50;;
59105;SDS011;44891;50.204;8.132;2023-07-22T03:57:53;10.13;;;7.40;;
59105;SDS011;44891;50.204;8.132;2023-07-22T04:05:58;9.05;;;7.53;;
59105;SDS011;44891;50.204;8.132;2023-07-22T04:10:00;10.23;;;8.32;;
59105;SDS011;44891;50.204;8.132;2023-07-22T04:14:03;11.55;;;8.25;;
59105;SDS011;44891;50.204;8.132;2023-07-22T04:18:05;9.75;;;7.30;;
59105;SDS011;44891;50.204;8.132;2023-07-22T04:22:08;12.48;;;7.85;;
59105;SDS011;44891;50.204;8.132;2023-07-22T04:26:11;11.15;;;7.93;;
59105;SDS011;44891;50.204;8.132;2023-07-22T04:34:21;10.38;;;7.25;;
59105;SDS011;44891;50.204;8.132;2023-07-22T04:38:24;13.05;;;8.20;;
59105;SDS011;44891;50.204;8.132;2023-07-22T04:42:26;10.55;;;7.93;;
59105;SDS011;44891;50.204;8.132;2023-07-22T04:46:29;11.82;;;7.80;;
59105;SDS011;44891;50.204;8.132;2023-07-22T04:54:34;10.30;;;7.72;;
59105;SDS011;44891;50.204;8.132;2023-07-22T04:58:36;9.20;;;6.95;;
59105;SDS011;44891;50.204;8.132;2023-07-22T05:02:39;14.93;;;8.05;;
59105;SDS011;44891;50.204;8.132;2023-07-22T05:06:41;13.13;;;7.45;;
59105;SDS011;44891;50.204;8.132;2023-07-22T05:10:44;10.88;;;7.57;;
59105;SDS011;44891;50.204;8.132;2023-07-22T05:14:47;10.45;;;7.88;;
59105;SDS011;44891;50.204;8.132;2023-07-22T05:18:50;11.50;;;8.20;;
59105;SDS011;44891;50.204;8.132;2023-07-22T05:22:52;13.55;;;8.50;;
59105;SDS011;44891;50.204;8.132;2023-07-22T05:26:55;9.10;;;7.53;;
59105;SDS011;44891;50.204;8.132;2023-07-22T05:30:57;9.48;;;7.93;;
59105;SDS011;44891;50.204;8.132;2023-07-22T05:34:59;10.73;;;7.82;;
59105;SDS011;44891;50.204;8.132;2023-07-22T05:39:02;10.90;;;7.75;;
59105;SDS011;44891;50.204;8.132;2023-07-22T05:43:06;10.13;;;7.47;;
59105;SDS011;44891;50.204;8.132;2023-07-22T05:47:08;12.00;;;8.60;;
59105;SDS011;44891;50.204;8.132;2023-07-22T05:51:10;11.95;;;8.57;;
59105;SDS011;44891;50.204;8.132;2023-07-22T05:55:12;11.82;;;8.07;;
59105;SDS011;44891;50.204;8.132;2023-07-22T05:59:16;13.65;;;8.57;;
59105;SDS011;44891;50.204;8.132;2023-07-22T06:03:19;14.35;;;8.65;;
59105;SDS011;44891;50.204;8.132;2023-07-22T06:07:21;14.80;;;10.10;;
59105;SDS011;44891;50.204;8.132;2023-07-22T06:11:23;13.98;;;9.68;;
59105;SDS011;44891;50.204;8.132;2023-07-22T06:15:27;14.43;;;9.63;;
59105;SDS011;44891;50.204;8.132;2023-07-22T06:24:05;12.85;;;9.15;;
59105;SDS011;44891;50.204;8.132;2023-07-22T06:28:07;10.57;;;8.32;;
59105;SDS011;44891;50.204;8.132;2023-07-22T06:32:11;11.48;;;8.35;;
59105;SDS011;44891;50.204;8.132;2023-07-22T06:36:13;12.23;;;7.97;;
59105;SDS011;44891;50.204;8.132;2023-07-22T06:40:17;10.80;;;7.85;;
59105;SDS011;44891;50.204;8.132;2023-07-22T06:44:19;10.73;;;8.13;;
59105;SDS011;44891;50.204;8.132;2023-07-22T06:48:23;9.35;;;6.20;;
59105;SDS011;44891;50.204;8.132;2023-07-22T06:52:25;7.25;;;5.60;;
59105;SDS011;44891;50.204;8.132;2023-07-22T06:56:27;7.25;;;5.43;;
59105;SDS011;44891;50.204;8.132;2023-07-22T07:00:29;6.82;;;5.47;;
59105;SDS011;44891;50.204;8.132;2023-07-22T07:04:33;7.40;;;5.70;;
59105;SDS011;44891;50.204;8.132;2023-07-22T07:08:35;7.60;;;5.88;;
59105;SDS011;44891;50.204;8.132;2023-07-22T07:12:38;8.95;;;5.88;;
59105;SDS011;44891;50.204;8.132;2023-07-22T07:16:40;6.82;;;5.55;;
59105;SDS011;44891;50.204;8.132;2023-07-22T07:20:45;7.88;;;5.68;;
59105;SDS011;44891;50.204;8.132;2023-07-22T07:24:47;8.23;;;5.72;;
59105;SDS011;44891;50.204;8.132;2023-07-22T07:28:49;7.50;;;5.63;;
59105;SDS011;44891;50.204;8.132;2023-07-22T07:32:52;9.30;;;6.10;;
59105;SDS011;44891;50.204;8.132;2023-07-22T07:36:56;8.18;;;5.80;;
59105;SDS011;44891;50.204;8.132;2023-07-22T07:40:59;7.28;;;5.35;;
59105;SDS011;44891;50.204;8.132;2023-07-22T07:45:02;6.72;;;5.10;;
59105;SDS011;44891;50.204;8.132;2023-07-22T07:49:05;8.18;;;5.30;;
59105;SDS011;44891;50.204;8.132;2023-07-22T07:53:08;7.60;;;5.18;;
59105;SDS011;44891;50.204;8.132;2023-07-22T07:57:10;7.88;;;5.57;;
59105;SDS011;44891;50.204;8.132;2023-07-22T08:01:13;7.75;;;5.40;;
59105;SDS011;44891;50.204;8.132;2023-07-22T08:05:15;9.30;;;5.50;;
59105;SDS011;44891;50.204;8.132;2023-07-22T08:09:19;7.05;;;5.07;;
59105;SDS011;44891;50.204;8.132;2023-07-22T08:13:22;6.80;;;5.32;;
59105;SDS011;44891;50.204;8.132;2023-07-22T08:17:24;7.35;;;5.10;;
59105;SDS011;44891;50.204;8.132;2023-07-22T08:21:26;8.07;;;5.25;;
59105;SDS011;44891;50.204;8.132;2023-07-22T08:25:30;9.00;;;5.70;;
59105;SDS011;44891;50.204;8.132;2023-07-22T08:29:32;7.03;;;5.00;;
59105;SDS011;44891;50.204;8.132;2023-07-22T08:33:35;7.13;;;5.60;;
59105;SDS011;44891;50.204;8.132;2023-07-22T08:37:37;7.03;;;5.30;;
59105;SDS011;44891;50.204;8.132;2023-07-22T08:41:40;8.80;;;5.32;;
59105;SDS011;44891;50.204;8.132;2023-07-22T08:45:50;11.55;;;5.13;;
59105;SDS011;44891;50.204;8.132;2023-07-22T08:49:54;10.00;;;5.15;;
59105;SDS011;44891;50.204;8.132;2023-07-22T08:54:00;7.43;;;4.85;;
59105;SDS011;44891;50.204;8.132;2023-07-22T08:58:05;8.20;;;4.90;;
59105;SDS011;44891;50.204;8.132;2023-07-22T09:02:09;9.50;;;4.68;;
59105;SDS011;44891;50.204;8.132;2023-07-22T09:06:13;6.65;;;4.50;;
59105;SDS011;44891;50.204;8.132;2023-07-22T09:10:16;6.07;;;4.50;;
59105;SDS011;44891;50.204;8.132;2023-07-22T09:14:21;9.63;;;4.95;;
59105;SDS011;44891;50.204;8.132;2023-07-22T09:18:25;6.55;;;4.18;;
59105;SDS011;44891;50.204;8.132;2023-07-22T09:22:27;5.93;;;4.28;;
59105;SDS011;44891;50.204;8.132;2023-07-22T09:26:30;7.38;;;4.70;;
59105;SDS011;44891;50.204;8.132;2023-07-22T09:30:36;7.20;;;4.53;;
59105;SDS011;44891;50.204;8.132;2023-07-22T09:34:45;6.40;;;4.35;;
59105;SDS011;44891;50.204;8.132;2023-07-22T09:38:59;6.05;;;4.50;;
59105;SDS011;44891;50.204;8.132;2023-07-22T09:43:03;5.78;;;4.32;;
59105;SDS011;44891;50.204;8.132;2023-07-22T09:47:07;8.18;;;5.30;;
59105;SDS011;44891;50.204;8.132;2023-07-22T09:51:13;7.68;;;4.65;;
59105;SDS011;44891;50.204;8.132;2023-07-22T09:55:17;6.38;;;4.78;;
59105;SDS011;44891;50.204;8.132;2023-07-22T09:59:20;7.25;;;4.68;;
59105;SDS011;44891;50.204;8.132;2023-07-22T10:03:26;7.38;;;5.22;;
59105;SDS011;44891;50.204;8.132;2023-07-22T10:07:32;6.78;;;5.10;;
59105;SDS011;44891;50.204;8.132;2023-07-22T10:11:35;8.07;;;5.18;;
59105;SDS011;44891;50.204;8.132;2023-07-22T10:15:37;7.50;;;4.97;;
59105;SDS011;44891;50.204;8.132;2023-07-22T10:19:41;6.80;;;4.70;;
59105;SDS011;44891;50.204;8.132;2023-07-22T10:23:44;11.10;;;5.40;;
59105;SDS011;44891;50.204;8.132;2023-07-22T10:27:50;7.75;;;4.93;;
59105;SDS011;44891;50.204;8.132;2023-07-22T10:31:53;7.13;;;5.18;;
59105;SDS011;44891;50.204;8.132;2023-07-22T10:36:04;7.03;;;4.78;;
59105;SDS011;44891;50.204;8.132;2023-07-22T10:40:18;6.80;;;4.72;;
59105;SDS011;44891;50.204;8.132;2023-07-22T10:44:22;6.95;;;5.03;;
59105;SDS011;44891;50.204;8.132;2023-07-22T10:48:27;6.28;;;4.95;;
59105;SDS011;44891;50.204;8.132;2023-07-22T10:52:42;7.00;;;4.95;;
59105;SDS011;44891;50.204;8.132;2023-07-22T10:56:47;6.43;;;4.15;;
59105;SDS011;44891;50.204;8.132;2023-07-22T11:00:49;6.55;;;4.22;;
59105;SDS011;44891;50.204;8.132;2023-07-22T11:04:52;7.32;;;4.40;;
59105;SDS011;44891;50.204;8.132;2023-07-22T11:08:55;6.63;;;4.65;;
59105;SDS011;44891;50.204;8.132;2023-07-22T11:12:58;7.78;;;4.45;;
59105;SDS011;44891;50.204;8.132;2023-07-22T11:17:01;6.53;;;4.60;;
59105;SDS011;44891;50.204;8.132;2023-07-22T11:21:09;7.43;;;4.95;;
59105;SDS011;44891;50.204;8.132;2023-07-22T11:25:18;6.65;;;4.60;;
59105;SDS011;44891;50.204;8.132;2023-07-22T11:29:20;7.72;;;4.47;;
59105;SDS011;44891;50.204;8.132;2023-07-22T11:33:22;8.52;;;4.80;;
59105;SDS011;44891;50.204;8.132;2023-07-22T11:37:27;5.43;;;4.65;;
59105;SDS011;44891;50.204;8.132;2023-07-22T11:41:31;6.03;;;4.50;;
59105;SDS011;44891;50.204;8.132;2023-07-22T11:45:34;5.03;;;4.53;;
59105;SDS011;44891;50.204;8.132;2023-07-22T11:49:41;5.95;;;4.60;;
59105;SDS011;44891;50.204;8.132;2023-07-22T11:53:46;7.10;;;4.20;;
59105;SDS011;44891;50.204;8.132;2023-07-22T11:57:53;5.90;;;4.38;;
59105;SDS011;44891;50.204;8.132;2023-07-22T12:01:55;5.90;;;4.93;;
59105;SDS011;44891;50.204;8.132;2023-07-22T12:06:00;6.35;;;4.45;;
59105;SDS011;44891;50.204;8.132;2023-07-22T12:10:04;6.22;;;4.85;;
59105;SDS011;44891;50.204;8.132;2023-07-22T12:14:09;6.53;;;5.00;;
59105;SDS011;44891;50.204;8.132;2023-07-22T12:18:14;6.47;;;5.10;;
59105;SDS011;44891;50.204;8.132;2023-07-22T12:22:16;6.53;;;5.30;;
59105;SDS011;44891;50.204;8.132;2023-07-22T12:26:18;8.63;;;5.60;;
59105;SDS011;44891;50.204;8.132;2023-07-22T12:30:22;6.55;;;5.18;;
59105;SDS011;44891;50.204;8.132;2023-07-22T12:34:24;6.65;;;5.10;;
59105;SDS011;44891;50.204;8.132;2023-07-22T12:38:26;7.45;;;4.95;;
59105;SDS011;44891;50.204;8.132;2023-07-22T12:42:29;6.47;;;4.65;;
59105;SDS011;44891;50.204;8.132;2023-07-22T12:46:32;6.40;;;4.65;;
59105;SDS011;44891;50.204;8.132;2023-07-22T12:50:34;6.80;;;4.80;;
59105;SDS011;44891;50.204;8.132;2023-07-22T12:54:36;6.22;;;4.68;;
59105;SDS011;44891;50.204;8.132;2023-07-22T12:58:39;6.57;;;4.82;;
59105;SDS011;44891;50.204;8.132;2023-07-22T13:02:42;5.97;;;4.43;;
59105;SDS011;44891;50.204;8.132;2023-07-22T13:06:45;6.57;;;4.45;;
59105;SDS011;44891;50.204;8.132;2023-07-22T13:10:47;6.03;;;4.68;;
59105;SDS011;44891;50.204;8.132;2023-07-22T13:14:51;6.97;;;4.38;;
59105;SDS011;44891;50.204;8.132;2023-07-22T13:18:55;6.40;;;4.35;;
59105;SDS011;44891;50.204;8.132;2023-07-22T13:23:00;7.10;;;4.53;;
59105;SDS011;44891;50.204;8.132;2023-07-22T13:27:02;8.05;;;4.90;;
59105;SDS011;44891;50.204;8.132;2023-07-22T13:31:05;5.75;;;4.38;;
59105;SDS011;44891;50.204;8.132;2023-07-22T13:35:08;5.78;;;4.30;;
59105;SDS011;44891;50.204;8.132;2023-07-22T13:39:11;6.93;;;4.68;;
59105;SDS011;44891;50.204;8.132;2023-07-22T13:43:13;7.63;;;4.35;;
59105;SDS011;44891;50.204;8.132;2023-07-22T13:47:15;4.95;;;4.10;;
59105;SDS011;44891;50.204;8.132;2023-07-22T13:51:19;8.15;;;4.72;;
59105;SDS011;44891;50.204;8.132;2023-07-22T13:55:21;6.78;;;4.60;;
59105;SDS011;44891;50.204;8.132;2023-07-22T13:59:23;7.55;;;4.70;;
59105;SDS011;44891;50.204;8.132;2023-07-22T14:03:25;5.88;;;4.55;;
59105;SDS011;44891;50.204;8.132;2023-07-22T14:07:29;10.48;;;5.03;;
59105;SDS011;44891;50.204;8.132;2023-07-22T14:11:31;7.50;;;4.65;;
59105;SDS011;44891;50.204;8.132;2023-07-22T14:15:34;6.97;;;5.03;;
59105;SDS011;44891;50.204;8.132;2023-07-22T14:19:37;8.55;;;4.80;;
59105;SDS011;44891;50.204;8.132;2023-07-22T14:23:40;7.03;;;4.57;;
59105;SDS011;44891;50.204;8.132;2023-07-22T14:27:44;7.50;;;5.28;;
59105;SDS011;44891;50.204;8.132;2023-07-22T14:31:46;6.82;;;4.25;;
59105;SDS011;44891;50.204;8.132;2023-07-22T14:35:49;8.32;;;5.20;;
59105;SDS011;44891;50.204;8.132;2023-07-22T14:39:52;6.78;;;4.72;;
59105;SDS011;44891;50.204;8.132;2023-07-22T14:43:54;13.48;;;4.80;;
59105;SDS011;44891;50.204;8.132;2023-07-22T14:47:56;6.70;;;4.20;;
59105;SDS011;44891;50.204;8.132;2023-07-22T14:51:58;6.03;;;4.47;;
59105;SDS011;44891;50.204;8.132;2023-07-22T14:56:02;5.50;;;4.45;;
59105;SDS011;44891;50.204;8.132;2023-07-22T15:00:05;7.00;;;4.40;;
59105;SDS011;44891;50.204;8.132;2023-07-22T15:04:08;6.07;;;4.57;;
59105;SDS011;44891;50.204;8.132;2023-07-22T15:08:11;7.20;;;4.95;;
59105;SDS011;44891;50.204;8.132;2023-07-22T15:12:15;6.85;;;4.03;;
59105;SDS011;44891;50.204;8.132;2023-07-22T15:16:17;5.97;;;4.43;;
59105;SDS011;44891;50.204;8.132;2023-07-22T15:20:19;6.07;;;4.30;;
59105;SDS011;44891;50.204;8.132;2023-07-22T15:24:21;6.60;;;4.35;;
59105;SDS011;44891;50.204;8.132;2023-07-22T15:28:25;6.38;;;4.30;;
59105;SDS011;44891;50.204;8.132;2023-07-22T15:32:27;5.57;;;4.15;;
59105;SDS011;44891;50.204;8.132;2023-07-22T15:36:30;5.13;;;4.18;;
59105;SDS011;44891;50.204;8.132;2023-07-22T15:40:34;8.55;;;7.18;;
59105;SDS011;44891;50.204;8.132;2023-07-22T15:44:37;5.60;;;4.97;;
59105;SDS011;44891;50.204;8.132;2023-07-22T15:48:40;6.60;;;4.20;;
59105;SDS011;44891;50.204;8.132;2023-07-22T15:52:42;5.55;;;3.90;;
59105;SDS011;44891;50.204;8.132;2023-07-22T15:56:44;5.88;;;3.97;;
59105;SDS011;44891;50.204;8.132;2023-07-22T16:00:48;6.20;;;3.88;;
59105;SDS011;44891;50.204;8.132;2023-07-22T16:04:50;4.72;;;3.97;;
59105;SDS011;44891;50.204;8.132;2023-07-22T16:08:52;6.97;;;4.30;;
59105;SDS011;44891;50.204;8.132;2023-07-22T16:12:54;5.97;;;4.03;;
59105;SDS011;44891;50.204;8.132;2023-07-22T16:16:58;4.65;;;3.97;;
59105;SDS011;44891;50.204;8.132;2023-07-22T16:21:00;5.85;;;3.95;;
59105;SDS011;44891;50.204;8.132;2023-07-22T16:25:02;5.72;;;4.03;;
59105;SDS011;44891;50.204;8.132;2023-07-22T16:29:05;6.53;;;4.15;;
59105;SDS011;44891;50.204;8.132;2023-07-22T16:33:09;6.45;;;4.72;;
59105;SDS011;44891;50.204;8.132;2023-07-22T16:37:12;7.25;;;4.30;;
59105;SDS011;44891;50.204;8.132;2023-07-22T16:41:14;7.40;;;4.47;;
59105;SDS011;44891;50.204;8.132;2023-07-22T16:45:16;6.75;;;4.50;;
59105;SDS011;44891;50.204;8.132;2023-07-22T16:49:20;8.27;;;5.45;;
59105;SDS011;44891;50.204;8.132;2023-07-22T16:53:22;5.60;;;4.50;;
59105;SDS011;44891;50.204;8.132;2023-07-22T16:57:25;6.68;;;4.55;;
59105;SDS011;44891;50.204;8.132;2023-07-22T17:01:27;8.15;;;4.82;;
59105;SDS011;44891;50.204;8.132;2023-07-22T17:05:30;7.18;;;4.78;;
59105;SDS011;44891;50.204;8.132;2023-07-22T17:09:33;7.03;;;5.32;;
59105;SDS011;44891;50.204;8.132;2023-07-22T17:13:35;7.30;;;5.05;;
59105;SDS011;44891;50.204;8.132;2023-07-22T17:17:37;7.43;;;5.80;;
59105;SDS011;44891;50.204;8.132;2023-07-22T17:21:44;7.20;;;5.90;;
59105;SDS011;44891;50.204;8.132;2023-07-22T17:25:46;10.07;;;6.40;;
59105;SDS011;44891;50.204;8.132;2023-07-22T17:29:48;8.25;;;6.10;;
59105;SDS011;44891;50.204;8.132;2023-07-22T17:33:51;8.43;;;5.82;;
59105;SDS011;44891;50.204;8.132;2023-07-22T17:37:54;10.43;;;5.82;;
59105;SDS011;44891;50.204;8.132;2023-07-22T17:41:56;9.07;;;5.30;;
59105;SDS011;44891;50.204;8.132;2023-07-22T17:45:58;8.60;;;5.32;;
59105;SDS011;44891;50.204;8.132;2023-07-22T17:50:01;8.73;;;5.45;;
59105;SDS011;44891;50.204;8.132;2023-07-22T17:54:05;7.28;;;5.30;;
59105;SDS011;44891;50.204;8.132;2023-07-22T17:58:07;9.45;;;5.30;;
59105;SDS011;44891;50.204;8.132;2023-07-22T18:02:09;10.45;;;5.60;;
59105;SDS011;44891;50.204;8.132;2023-07-22T18:06:14;6.53;;;4.90;;
59105;SDS011;44891;50.204;8.132;2023-07-22T18:10:18;9.00;;;5.30;;
59105;SDS011;44891;50.204;8.132;2023-07-22T18:14:20;7.22;;;5.13;;
59105;SDS011;44891;50.204;8.132;2023-07-22T18:18:22;8.85;;;4.80;;
59105;SDS011;44891;50.204;8.132;2023-07-22T18:22:24;7.60;;;4.90;;
59105;SDS011;44891;50.204;8.132;2023-07-22T18:26:28;6.85;;;4.90;;
59105;SDS011;44891;50.204;8.132;2023-07-22T18:30:30;8.25;;;5.07;;
59105;SDS011;44891;50.204;8.132;2023-07-22T18:34:32;8.40;;;4.85;;
59105;SDS011;44891;50.204;8.132;2023-07-22T18:38:34;8.70;;;4.65;;
59105;SDS011;44891;50.204;8.132;2023-07-22T18:42:37;7.88;;;4.88;;
59105;SDS011;44891;50.204;8.132;2023-07-22T18:46:40;7.90;;;4.90;;
59105;SDS011;44891;50.204;8.132;2023-07-22T18:50:42;6.45;;;4.70;;
59105;SDS011;44891;50.204;8.132;2023-07-22T18:54:44;7.30;;;4.95;;
59105;SDS011;44891;50.204;8.132;2023-07-22T18:58:48;8.90;;;5.00;;
59105;SDS011;44891;50.204;8.132;2023-07-22T19:02:50;9.20;;;4.80;;
59105;SDS011;44891;50.204;8.132;2023-07-22T19:06:52;8.00;;;4.63;;
59105;SDS011;44891;50.204;8.132;2023-07-22T19:10:54;9.15;;;5.05;;
59105;SDS011;44891;50.204;8.132;2023-07-22T19:14:58;10.25;;;5.65;;
59105;SDS011;44891;50.204;8.132;2023-07-22T19:19:00;9.13;;;5.20;;
59105;SDS011;44891;50.204;8.132;2023-07-22T19:23:02;10.30;;;5.25;;
59105;SDS011;44891;50.204;8.132;2023-07-22T19:27:06;8.65;;;5.28;;
59105;SDS011;44891;50.204;8.132;2023-07-22T19:31:10;8.77;;;5.20;;
59105;SDS011;44891;50.204;8.132;2023-07-22T19:35:12;7.65;;;5.20;;
59105;SDS011;44891;50.204;8.132;2023-07-22T19:39:14;10.23;;;5.28;;
59105;SDS011;44891;50.204;8.132;2023-07-22T19:43:17;10.98;;;5.40;;
59105;SDS011;44891;50.204;8.132;2023-07-22T19:47:20;15.02;;;5.70;;
59105;SDS011;44891;50.204;8.132;2023-07-22T19:51:22;12.02;;;7.43;;
59105;SDS011;44891;50.204;8.132;2023-07-22T19:55:25;8.25;;;5.43;;
59105;SDS011;44891;50.204;8.132;2023-07-22T19:59:27;7.85;;;5.43;;
59105;SDS011;44891;50.204;8.132;2023-07-22T20:03:31;7.65;;;5.35;;
59105;SDS011;44891;50.204;8.132;2023-07-22T20:07:33;7.35;;;5.47;;
59105;SDS011;44891;50.204;8.132;2023-07-22T20:11:35;8.38;;;5.40;;
59105;SDS011;44891;50.204;8.132;2023-07-22T20:15:38;7.63;;;5.60;;
59105;SDS011;44891;50.204;8.132;2023-07-22T20:19:41;11.63;;;5.75;;
59105;SDS011;44891;50.204;8.132;2023-07-22T20:23:43;9.43;;;5.35;;
59105;SDS011;44891;50.204;8.132;2023-07-22T20:27:49;9.85;;;5.93;;
59105;SDS011;44891;50.204;8.132;2023-07-22T20:31:52;9.18;;;6.30;;
59105;SDS011;44891;50.204;8.132;2023-07-22T20:35:55;9.82;;;5.78;;
59105;SDS011;44891;50.204;8.132;2023-07-22T20:39:58;8.45;;;5.80;;
59105;SDS011;44891;50.204;8.132;2023-07-22T20:44:00;7.75;;;5.55;;
59105;SDS011;44891;50.204;8.132;2023-07-22T20:48:02;9.80;;;5.50;;
59105;SDS011;44891;50.204;8.132;2023-07-22T20:52:06;7.90;;;5.50;;
59105;SDS011;44891;50.204;8.132;2023-07-22T20:56:08;9.05;;;5.20;;
59105;SDS011;44891;50.204;8.132;2023-07-22T21:00:11;7.97;;;4.93;;
59105;SDS011;44891;50.204;8.132;2023-07-22T21:04:14;6.75;;;5.40;;
59105;SDS011;44891;50.204;8.132;2023-07-22T21:08:17;8.68;;;5.47;;
59105;SDS011;44891;50.204;8.132;2023-07-22T21:12:20;8.52;;;5.05;;
59105;SDS011;44891;50.204;8.132;2023-07-22T21:16:22;7.75;;;5.60;;
59105;SDS011;44891;50.204;8.132;2023-07-22T21:20:24;7.18;;;5.20;;
59105;SDS011;44891;50.204;8.132;2023-07-22T21:24:27;7.43;;;5.75;;
59105;SDS011;44891;50.204;8.132;2023-07-22T21:28:29;9.45;;;5.35;;
59105;SDS011;44891;50.204;8.132;2023-07-22T21:32:31;8.07;;;5.63;;
59105;SDS011;44891;50.204;8.132;2023-07-22T21:36:33;8.13;;;5.22;;
59105;SDS011;44891;50.204;8.132;2023-07-22T21:40:37;8.60;;;5.40;;
59105;SDS011;44891;50.204;8.132;2023-07-22T21:44:39;9.45;;;6.13;;
59105;SDS011;44891;50.204;8.132;2023-07-22T21:48:41;8.32;;;6.43;;
59105;SDS011;44891;50.204;8.132;2023-07-22T21:52:43;9.65;;;7.20;;
59105;SDS011;44891;50.204;8.132;2023-07-22T21:56:47;8.07;;;6.50;;
59105;SDS011;44891;50.204;8.132;2023-07-22T22:00:49;8.15;;;6.38;;
59105;SDS011;44891;50.204;8.132;2023-07-22T22:04:51;8.45;;;6.80;;
59105;SDS011;44891;50.204;8.132;2023-07-22T22:08:53;9.00;;;6.85;;
59105;SDS011;44891;50.204;8.132;2023-07-22T22:12:56;8.52;;;5.93;;
59105;SDS011;44891;50.204;8.132;2023-07-22T22:16:58;7.97;;;6.13;;
59105;SDS011;44891;50.204;8.132;2023-07-22T22:21:01;8.40;;;6.32;;
59105;SDS011;44891;50.204;8.132;2023-07-22T22:25:03;8.50;;;6.50;;
59105;SDS011;44891;50.204;8.132;2023-07-22T22:29:07;9.77;;;6.38;;
59105;SDS011;44891;50.204;8.132;2023-07-22T22:33:09;8.48;;;6.32;;
59105;SDS011;44891;50.204;8.132;2023-07-22T22:37:11;8.68;;;6.15;;
59105;SDS011;44891;50.204;8.132;2023-07-22T22:41:13;6.65;;;5.53;;
59105;SDS011;44891;50.204;8.132;2023-07-22T22:45:17;7.90;;;6.82;;
59105;SDS011;44891;50.204;8.132;2023-07-22T22:49:19;8.43;;;7.53;;
59105;SDS011;44891;50.204;8.132;2023-07-22T22:53:23;8.65;;;6.38;;
59105;SDS011;44891;50.204;8.132;2023-07-22T22:57:25;6.70;;;5.43;;
59105;SDS011;44891;50.204;8.132;2023-07-22T23:01:28;9.23;;;5.90;;
59105;SDS011;44891;50.204;8.132;2023-07-22T23:05:30;11.30;;;9.38;;
59105;SDS011;44891;50.204;8.132;2023-07-22T23:09:33;8.10;;;5.18;;
59105;SDS011;44891;50.204;8.132;2023-07-22T23:13:35;6.82;;;5.25;;
59105;SDS011;44891;50.204;8.132;2023-07-22T23:17:38;7.50;;;5.63;;
59105;SDS011;44891;50.204;8.132;2023-07-22T23:21:40;6.68;;;5.22;;
59105;SDS011;44891;50.204;8.132;2023-07-22T23:25:42;8.95;;;5.65;;
59105;SDS011;44891;50.204;8.132;2023-07-22T23:29:44;7.13;;;5.68;;
59105;SDS011;44891;50.204;8.132;2023-07-22T23:33:48;8.20;;;6.30;;
59105;SDS011;44891;50.204;8.132;2023-07-22T23:37:50;7.78;;;6.35;;
59105;SDS011;44891;50.204;8.132;2023-07-22T23:41:52;7.55;;;6.55;;
59105;SDS011;44891;50.204;8.132;2023-07-22T23:45:54;10.88;;;7.78;;
59105;SDS011;44891;50.204;8.132;2023-07-22T23:49:58;6.85;;;5.38;;
59105;SDS011;44891;50.204;8.132;2023-07-22T23:54:00;10.45;;;5.53;;
59105;SDS011;44891;50.204;8.132;2023-07-22T23:58:04;7.95;;;5.38;;
